sensor_id;sensor_type;location;lat;lon;timestamp;temperature;humidity
2523;DHT22;1272;53.332;9.860;2023-02-03T00:00:23;5.80;99.90
2523;DHT22;1272;53.332;9.860;2023-02-03T00:02:51;5.90;99.90
2523;DHT22;1272;53.332;9.860;2023-02-03T00:05:17;5.90;99.90
2523;DHT22;1272;53.332;9.860;2023-02-03T00:07:43;6.00;99.90
2523;DHT22;1272;53.332;9.860;2023-02-03T00:10:09;6.00;99.90
2523;DHT22;1272;53.332;9.860;2023-02-03T00:12:35;6.00;99.90
2523;DHT22;1272;53.332;9.860;2023-02-03T00:15:01;6.00;99.90
2523;DHT22;1272;53.332;9.860;2023-02-03T00:17:27;6.10;99.90
2523;DHT22;1272;53.332;9.860;2023-02-03T00:19:52;6.20;99.90
2523;DHT22;1272;53.332;9.860;2023-02-03T00:22:18;6.20;99.90
2523;DHT22;1272;53.332;9.860;2023-02-03T00:24:44;6.30;99.90
2523;DHT22;1272;53.332;9.860;2023-02-03T00:27:09;6.40;99.90
2523;DHT22;1272;53.332;9.860;2023-02-03T00:29:35;6.40;99.90
2523;DHT22;1272;53.332;9.860;2023-02-03T00:32:01;6.40;99.90
2523;DHT22;1272;53.332;9.860;2023-02-03T00:34:30;6.60;99.90
2523;DHT22;1272;53.332;9.860;2023-02-03T00:36:56;6.70;99.90
2523;DHT22;1272;53.332;9.860;2023-02-03T00:39:22;6.80;99.90
2523;DHT22;1272;53.332;9.860;2023-02-03T00:41:48;6.80;99.90
2523;DHT22;1272;53.332;9.860;2023-02-03T00:44:14;6.80;99.90
2523;DHT22;1272;53.332;9.860;2023-02-03T00:46:40;6.80;99.90
2523;DHT22;1272;53.332;9.860;2023-02-03T00:49:05;6.90;99.90
2523;DHT22;1272;53.332;9.860;2023-02-03T00:51:32;6.90;99.90
2523;DHT22;1272;53.332;9.860;2023-02-03T00:53:58;7.00;99.90
2523;DHT22;1272;53.332;9.860;2023-02-03T00:56:24;7.00;99.90
2523;DHT22;1272;53.332;9.860;2023-02-03T00:58:50;7.00;99.90
2523;DHT22;1272;53.332;9.860;2023-02-03T01:01:16;7.10;99.90
2523;DHT22;1272;53.332;9.860;2023-02-03T01:03:42;7.10;99.90
2523;DHT22;1272;53.332;9.860;2023-02-03T01:06:16;7.10;99.90
2523;DHT22;1272;53.332;9.860;2023-02-03T01:08:42;7.20;99.90
2523;DHT22;1272;53.332;9.860;2023-02-03T01:11:11;7.30;99.90
2523;DHT22;1272;53.332;9.860;2023-02-03T01:13:37;7.20;99.90
2523;DHT22;1272;53.332;9.860;2023-02-03T01:16:06;7.20;99.90
2523;DHT22;1272;53.332;9.860;2023-02-03T01:18:32;7.20;99.90
2523;DHT22;1272;53.332;9.860;2023-02-03T01:20:57;7.20;99.90
2523;DHT22;1272;53.332;9.860;2023-02-03T01:23:28;7.20;99.90
2523;DHT22;1272;53.332;9.860;2023-02-03T01:25:54;7.20;99.90
2523;DHT22;1272;53.332;9.860;2023-02-03T01:28:19;7.20;99.90
2523;DHT22;1272;53.332;9.860;2023-02-03T01:30:45;7.30;99.90
2523;DHT22;1272;53.332;9.860;2023-02-03T01:33:11;7.40;99.90
2523;DHT22;1272;53.332;9.860;2023-02-03T01:35:36;7.30;99.90
2523;DHT22;1272;53.332;9.860;2023-02-03T01:38:02;7.40;99.90
2523;DHT22;1272;53.332;9.860;2023-02-03T01:40:28;7.40;99.90
2523;DHT22;1272;53.332;9.860;2023-02-03T01:42:53;7.30;99.90
2523;DHT22;1272;53.332;9.860;2023-02-03T01:45:19;7.40;99.90
2523;DHT22;1272;53.332;9.860;2023-02-03T01:47:51;7.40;99.90
2523;DHT22;1272;53.332;9.860;2023-02-03T01:50:31;7.40;99.90
2523;DHT22;1272;53.332;9.860;2023-02-03T01:53:04;7.40;99.90
2523;DHT22;1272;53.332;9.860;2023-02-03T01:55:39;7.40;99.90
2523;DHT22;1272;53.332;9.860;2023-02-03T01:58:15;7.40;99.90
2523;DHT22;1272;53.332;9.860;2023-02-03T02:00:44;7.40;99.90
2523;DHT22;1272;53.332;9.860;2023-02-03T02:03:12;7.50;99.90
2523;DHT22;1272;53.332;9.860;2023-02-03T02:05:45;7.50;99.90
2523;DHT22;1272;53.332;9.860;2023-02-03T02:08:12;7.50;99.90
2523;DHT22;1272;53.332;9.860;2023-02-03T02:10:40;7.40;99.90
2523;DHT22;1272;53.332;9.860;2023-02-03T02:13:05;7.40;99.90
2523;DHT22;1272;53.332;9.860;2023-02-03T02:15:59;7.50;99.90
2523;DHT22;1272;53.332;9.860;2023-02-03T02:18:42;7.50;99.90
2523;DHT22;1272;53.332;9.860;2023-02-03T02:32:19;7.40;99.90
2523;DHT22;1272;53.332;9.860;2023-02-03T02:37:52;7.40;99.90
2523;DHT22;1272;53.332;9.860;2023-02-03T02:45:59;7.40;99.90
2523;DHT22;1272;53.332;9.860;2023-02-03T02:51:10;7.50;99.90
2523;DHT22;1272;53.332;9.860;2023-02-03T02:53:42;7.50;99.90
2523;DHT22;1272;53.332;9.860;2023-02-03T02:56:12;7.50;99.90
2523;DHT22;1272;53.332;9.860;2023-02-03T02:58:40;7.50;99.90
2523;DHT22;1272;53.332;9.860;2023-02-03T03:01:11;7.50;99.90
2523;DHT22;1272;53.332;9.860;2023-02-03T03:03:40;7.50;99.90
2523;DHT22;1272;53.332;9.860;2023-02-03T03:06:34;7.40;99.90
2523;DHT22;1272;53.332;9.860;2023-02-03T03:09:04;7.50;99.90
2523;DHT22;1272;53.332;9.860;2023-02-03T03:11:32;7.50;99.90
2523;DHT22;1272;53.332;9.860;2023-02-03T03:14:02;7.50;99.90
2523;DHT22;1272;53.332;9.860;2023-02-03T03:16:44;7.50;99.90
2523;DHT22;1272;53.332;9.860;2023-02-03T03:19:18;7.50;99.90
2523;DHT22;1272;53.332;9.860;2023-02-03T03:21:52;7.50;99.90
2523;DHT22;1272;53.332;9.860;2023-02-03T03:24:24;7.50;99.90
2523;DHT22;1272;53.332;9.860;2023-02-03T03:27:05;7.50;99.90
2523;DHT22;1272;53.332;9.860;2023-02-03T03:29:37;7.50;99.90
2523;DHT22;1272;53.332;9.860;2023-02-03T03:32:05;7.50;99.90
2523;DHT22;1272;53.332;9.860;2023-02-03T03:34:34;7.50;99.90
2523;DHT22;1272;53.332;9.860;2023-02-03T03:37:14;7.50;99.90
2523;DHT22;1272;53.332;9.860;2023-02-03T03:45:19;7.60;99.90
2523;DHT22;1272;53.332;9.860;2023-02-03T03:50:31;7.60;99.90
2523;DHT22;1272;53.332;9.860;2023-02-03T03:53:00;7.60;99.90
2523;DHT22;1272;53.332;9.860;2023-02-03T03:55:28;7.60;99.90
2523;DHT22;1272;53.332;9.860;2023-02-03T03:57:59;7.60;99.90
2523;DHT22;1272;53.332;9.860;2023-02-03T04:00:28;7.60;99.90
2523;DHT22;1272;53.332;9.860;2023-02-03T04:02:58;7.60;99.90
2523;DHT22;1272;53.332;9.860;2023-02-03T04:05:26;7.60;99.90
2523;DHT22;1272;53.332;9.860;2023-02-03T04:07:52;7.60;99.90
2523;DHT22;1272;53.332;9.860;2023-02-03T04:10:35;7.60;99.90
2523;DHT22;1272;53.332;9.860;2023-02-03T04:13:02;7.60;99.90
2523;DHT22;1272;53.332;9.860;2023-02-03T04:15:31;7.60;99.90
2523;DHT22;1272;53.332;9.860;2023-02-03T04:17:57;7.70;99.90
2523;DHT22;1272;53.332;9.860;2023-02-03T04:20:26;7.60;99.90
2523;DHT22;1272;53.332;9.860;2023-02-03T04:22:52;7.60;99.90
2523;DHT22;1272;53.332;9.860;2023-02-03T04:25:18;7.70;99.90
2523;DHT22;1272;53.332;9.860;2023-02-03T04:27:43;7.70;99.90
2523;DHT22;1272;53.332;9.860;2023-02-03T04:30:10;7.60;99.90
2523;DHT22;1272;53.332;9.860;2023-02-03T04:32:36;7.60;99.90
2523;DHT22;1272;53.332;9.860;2023-02-03T04:35:03;7.50;99.90
2523;DHT22;1272;53.332;9.860;2023-02-03T04:37:29;7.50;99.90
2523;DHT22;1272;53.332;9.860;2023-02-03T04:39:55;7.50;99.90
2523;DHT22;1272;53.332;9.860;2023-02-03T04:42:22;7.50;99.90
2523;DHT22;1272;53.332;9.860;2023-02-03T04:44:48;7.50;99.90
2523;DHT22;1272;53.332;9.860;2023-02-03T04:47:14;7.50;99.90
2523;DHT22;1272;53.332;9.860;2023-02-03T04:49:40;7.50;99.90
2523;DHT22;1272;53.332;9.860;2023-02-03T04:52:09;7.50;99.90
2523;DHT22;1272;53.332;9.860;2023-02-03T04:54:37;7.50;99.90
2523;DHT22;1272;53.332;9.860;2023-02-03T04:57:04;7.50;99.90
2523;DHT22;1272;53.332;9.860;2023-02-03T04:59:30;7.50;99.90
2523;DHT22;1272;53.332;9.860;2023-02-03T05:01:56;7.60;99.90
2523;DHT22;1272;53.332;9.860;2023-02-03T05:04:22;7.50;99.90
2523;DHT22;1272;53.332;9.860;2023-02-03T05:06:48;7.50;99.90
2523;DHT22;1272;53.332;9.860;2023-02-03T05:09:14;7.50;99.90
2523;DHT22;1272;53.332;9.860;2023-02-03T05:11:39;7.50;99.90
2523;DHT22;1272;53.332;9.860;2023-02-03T05:14:05;7.50;99.90
2523;DHT22;1272;53.332;9.860;2023-02-03T05:16:31;7.50;99.90
2523;DHT22;1272;53.332;9.860;2023-02-03T05:19:00;7.50;99.90
2523;DHT22;1272;53.332;9.860;2023-02-03T05:21:28;7.50;99.90
2523;DHT22;1272;53.332;9.860;2023-02-03T05:23:54;7.50;99.90
2523;DHT22;1272;53.332;9.860;2023-02-03T05:26:20;7.50;99.90
2523;DHT22;1272;53.332;9.860;2023-02-03T05:28:45;7.50;99.90
2523;DHT22;1272;53.332;9.860;2023-02-03T05:31:11;7.50;99.90
2523;DHT22;1272;53.332;9.860;2023-02-03T05:33:37;7.50;99.90
2523;DHT22;1272;53.332;9.860;2023-02-03T05:36:03;7.40;99.90
2523;DHT22;1272;53.332;9.860;2023-02-03T05:38:28;7.50;99.90
2523;DHT22;1272;53.332;9.860;2023-02-03T05:40:54;7.40;99.90
2523;DHT22;1272;53.332;9.860;2023-02-03T05:43:38;7.40;99.90
2523;DHT22;1272;53.332;9.860;2023-02-03T05:46:11;7.40;99.90
2523;DHT22;1272;53.332;9.860;2023-02-03T05:48:37;7.40;99.90
2523;DHT22;1272;53.332;9.860;2023-02-03T05:51:03;7.40;99.90
2523;DHT22;1272;53.332;9.860;2023-02-03T05:53:28;7.40;99.90
2523;DHT22;1272;53.332;9.860;2023-02-03T05:55:54;7.40;99.90
2523;DHT22;1272;53.332;9.860;2023-02-03T05:58:20;7.40;99.90
2523;DHT22;1272;53.332;9.860;2023-02-03T06:00:45;7.40;99.90
2523;DHT22;1272;53.332;9.860;2023-02-03T06:03:11;7.40;99.90
2523;DHT22;1272;53.332;9.860;2023-02-03T06:05:37;7.40;99.90
2523;DHT22;1272;53.332;9.860;2023-02-03T06:08:06;7.40;99.90
2523;DHT22;1272;53.332;9.860;2023-02-03T06:10:32;7.40;99.90
2523;DHT22;1272;53.332;9.860;2023-02-03T06:12:58;7.40;99.90
2523;DHT22;1272;53.332;9.860;2023-02-03T06:15:24;7.40;99.90
2523;DHT22;1272;53.332;9.860;2023-02-03T06:17:50;7.40;99.90
2523;DHT22;1272;53.332;9.860;2023-02-03T06:20:18;7.40;99.90
2523;DHT22;1272;53.332;9.860;2023-02-03T06:22:44;7.40;99.90
2523;DHT22;1272;53.332;9.860;2023-02-03T06:25:10;7.40;99.90
2523;DHT22;1272;53.332;9.860;2023-02-03T06:27:38;7.40;99.90
2523;DHT22;1272;53.332;9.860;2023-02-03T06:30:04;7.40;99.90
2523;DHT22;1272;53.332;9.860;2023-02-03T06:32:30;7.40;99.90
2523;DHT22;1272;53.332;9.860;2023-02-03T06:34:56;7.40;99.90
2523;DHT22;1272;53.332;9.860;2023-02-03T06:37:21;7.40;99.90
2523;DHT22;1272;53.332;9.860;2023-02-03T06:39:47;7.40;99.90
2523;DHT22;1272;53.332;9.860;2023-02-03T06:42:13;7.40;99.90
2523;DHT22;1272;53.332;9.860;2023-02-03T06:44:39;7.40;99.90
2523;DHT22;1272;53.332;9.860;2023-02-03T06:47:05;7.50;99.90
2523;DHT22;1272;53.332;9.860;2023-02-03T06:49:30;7.40;99.90
2523;DHT22;1272;53.332;9.860;2023-02-03T06:51:56;7.50;99.90
2523;DHT22;1272;53.332;9.860;2023-02-03T06:54:22;7.40;99.90
2523;DHT22;1272;53.332;9.860;2023-02-03T06:56:47;7.40;99.90
2523;DHT22;1272;53.332;9.860;2023-02-03T06:59:13;7.50;99.90
2523;DHT22;1272;53.332;9.860;2023-02-03T07:01:41;7.50;99.90
2523;DHT22;1272;53.332;9.860;2023-02-03T07:04:07;7.50;99.90
2523;DHT22;1272;53.332;9.860;2023-02-03T07:06:33;7.60;99.90
2523;DHT22;1272;53.332;9.860;2023-02-03T07:09:00;7.60;99.90
2523;DHT22;1272;53.332;9.860;2023-02-03T07:11:26;7.60;99.90
2523;DHT22;1272;53.332;9.860;2023-02-03T07:13:52;7.60;99.90
2523;DHT22;1272;53.332;9.860;2023-02-03T07:16:19;7.60;99.90
2523;DHT22;1272;53.332;9.860;2023-02-03T07:18:45;7.60;99.90
2523;DHT22;1272;53.332;9.860;2023-02-03T07:21:11;7.70;99.90
2523;DHT22;1272;53.332;9.860;2023-02-03T07:23:37;7.80;99.90
2523;DHT22;1272;53.332;9.860;2023-02-03T07:26:05;7.80;99.90
2523;DHT22;1272;53.332;9.860;2023-02-03T07:28:32;7.80;99.90
2523;DHT22;1272;53.332;9.860;2023-02-03T07:30:58;7.70;99.90
2523;DHT22;1272;53.332;9.860;2023-02-03T07:33:23;7.70;99.90
2523;DHT22;1272;53.332;9.860;2023-02-03T07:35:57;7.80;99.90
2523;DHT22;1272;53.332;9.860;2023-02-03T07:38:24;7.80;99.90
2523;DHT22;1272;53.332;9.860;2023-02-03T07:40:51;7.80;99.90
2523;DHT22;1272;53.332;9.860;2023-02-03T07:43:17;7.80;99.90
2523;DHT22;1272;53.332;9.860;2023-02-03T07:45:44;7.80;99.90
2523;DHT22;1272;53.332;9.860;2023-02-03T07:48:12;7.80;99.90
2523;DHT22;1272;53.332;9.860;2023-02-03T07:50:38;7.80;99.90
2523;DHT22;1272;53.332;9.860;2023-02-03T07:53:05;7.80;99.90
2523;DHT22;1272;53.332;9.860;2023-02-03T07:55:31;7.80;99.90
2523;DHT22;1272;53.332;9.860;2023-02-03T07:57:57;7.90;99.90
2523;DHT22;1272;53.332;9.860;2023-02-03T08:00:24;7.80;99.90
2523;DHT22;1272;53.332;9.860;2023-02-03T08:02:52;7.90;99.90
2523;DHT22;1272;53.332;9.860;2023-02-03T08:05:18;7.90;99.90
2523;DHT22;1272;53.332;9.860;2023-02-03T08:07:44;7.90;99.90
2523;DHT22;1272;53.332;9.860;2023-02-03T08:10:12;7.90;99.90
2523;DHT22;1272;53.332;9.860;2023-02-03T08:12:38;7.90;99.90
2523;DHT22;1272;53.332;9.860;2023-02-03T08:15:04;7.90;99.90
2523;DHT22;1272;53.332;9.860;2023-02-03T08:17:31;7.90;99.90
2523;DHT22;1272;53.332;9.860;2023-02-03T08:19:58;7.90;99.90
2523;DHT22;1272;53.332;9.860;2023-02-03T08:22:24;7.90;99.90
2523;DHT22;1272;53.332;9.860;2023-02-03T08:24:49;8.00;99.90
2523;DHT22;1272;53.332;9.860;2023-02-03T08:27:20;8.00;99.90
2523;DHT22;1272;53.332;9.860;2023-02-03T08:29:46;8.00;99.90
2523;DHT22;1272;53.332;9.860;2023-02-03T08:32:19;8.00;99.90
2523;DHT22;1272;53.332;9.860;2023-02-03T08:34:46;8.00;99.90
2523;DHT22;1272;53.332;9.860;2023-02-03T08:37:14;8.10;99.90
2523;DHT22;1272;53.332;9.860;2023-02-03T08:39:40;8.10;99.90
2523;DHT22;1272;53.332;9.860;2023-02-03T08:42:06;8.10;99.90
2523;DHT22;1272;53.332;9.860;2023-02-03T08:44:33;8.10;99.90
2523;DHT22;1272;53.332;9.860;2023-02-03T08:46:59;8.00;99.90
2523;DHT22;1272;53.332;9.860;2023-02-03T08:49:27;7.50;99.90
2523;DHT22;1272;53.332;9.860;2023-02-03T08:51:53;7.30;99.90
2523;DHT22;1272;53.332;9.860;2023-02-03T08:54:19;7.30;99.90
2523;DHT22;1272;53.332;9.860;2023-02-03T08:56:45;7.20;99.90
2523;DHT22;1272;53.332;9.860;2023-02-03T08:59:11;7.10;99.90
2523;DHT22;1272;53.332;9.860;2023-02-03T09:01:37;7.10;99.90
2523;DHT22;1272;53.332;9.860;2023-02-03T09:04:06;7.10;99.90
2523;DHT22;1272;53.332;9.860;2023-02-03T09:06:34;7.10;99.90
2523;DHT22;1272;53.332;9.860;2023-02-03T09:09:00;7.10;99.90
2523;DHT22;1272;53.332;9.860;2023-02-03T09:11:26;7.10;99.90
2523;DHT22;1272;53.332;9.860;2023-02-03T09:13:52;7.00;99.90
2523;DHT22;1272;53.332;9.860;2023-02-03T09:16:18;7.10;99.90
2523;DHT22;1272;53.332;9.860;2023-02-03T09:18:46;7.10;99.90
2523;DHT22;1272;53.332;9.860;2023-02-03T09:21:13;7.10;99.90
2523;DHT22;1272;53.332;9.860;2023-02-03T09:23:40;7.20;99.90
2523;DHT22;1272;53.332;9.860;2023-02-03T09:26:11;7.30;99.90
2523;DHT22;1272;53.332;9.860;2023-02-03T09:28:37;7.30;99.90
2523;DHT22;1272;53.332;9.860;2023-02-03T09:31:12;7.30;99.90
2523;DHT22;1272;53.332;9.860;2023-02-03T09:33:38;7.50;99.90
2523;DHT22;1272;53.332;9.860;2023-02-03T09:36:05;7.50;99.90
2523;DHT22;1272;53.332;9.860;2023-02-03T09:38:32;7.50;99.90
2523;DHT22;1272;53.332;9.860;2023-02-03T09:40:59;7.60;99.90
2523;DHT22;1272;53.332;9.860;2023-02-03T09:43:36;7.60;99.90
2523;DHT22;1272;53.332;9.860;2023-02-03T09:46:15;7.60;99.90
2523;DHT22;1272;53.332;9.860;2023-02-03T09:49:13;7.70;99.90
2523;DHT22;1272;53.332;9.860;2023-02-03T09:51:49;7.70;99.90
2523;DHT22;1272;53.332;9.860;2023-02-03T09:54:16;7.80;99.90
2523;DHT22;1272;53.332;9.860;2023-02-03T09:56:44;7.80;99.90
2523;DHT22;1272;53.332;9.860;2023-02-03T09:59:15;7.80;99.90
2523;DHT22;1272;53.332;9.860;2023-02-03T10:02:12;7.80;99.90
2523;DHT22;1272;53.332;9.860;2023-02-03T10:07:35;7.80;99.90
2523;DHT22;1272;53.332;9.860;2023-02-03T10:13:09;7.80;99.90
2523;DHT22;1272;53.332;9.860;2023-02-03T10:18:33;8.00;99.90
2523;DHT22;1272;53.332;9.860;2023-02-03T10:21:18;8.00;99.90
2523;DHT22;1272;53.332;9.860;2023-02-03T10:23:47;8.00;99.90
2523;DHT22;1272;53.332;9.860;2023-02-03T10:26:21;8.00;99.90
2523;DHT22;1272;53.332;9.860;2023-02-03T10:29:07;8.10;99.90
2523;DHT22;1272;53.332;9.860;2023-02-03T10:31:41;8.10;99.90
2523;DHT22;1272;53.332;9.860;2023-02-03T10:34:12;8.10;99.90
2523;DHT22;1272;53.332;9.860;2023-02-03T10:36:45;8.10;99.90
2523;DHT22;1272;53.332;9.860;2023-02-03T10:39:28;8.10;99.90
2523;DHT22;1272;53.332;9.860;2023-02-03T10:41:55;8.10;99.90
2523;DHT22;1272;53.332;9.860;2023-02-03T10:44:28;8.10;99.90
2523;DHT22;1272;53.332;9.860;2023-02-03T10:46:56;8.10;99.90
2523;DHT22;1272;53.332;9.860;2023-02-03T10:49:25;8.20;99.90
2523;DHT22;1272;53.332;9.860;2023-02-03T10:51:54;8.20;99.90
2523;DHT22;1272;53.332;9.860;2023-02-03T10:54:40;8.20;99.90
2523;DHT22;1272;53.332;9.860;2023-02-03T10:57:11;8.30;99.90
2523;DHT22;1272;53.332;9.860;2023-02-03T10:59:45;8.30;99.90
2523;DHT22;1272;53.332;9.860;2023-02-03T11:02:29;8.40;99.90
2523;DHT22;1272;53.332;9.860;2023-02-03T11:05:17;8.30;99.90
2523;DHT22;1272;53.332;9.860;2023-02-03T11:07:43;8.30;99.90
2523;DHT22;1272;53.332;9.860;2023-02-03T11:10:38;8.40;99.90
2523;DHT22;1272;53.332;9.860;2023-02-03T11:13:11;8.40;99.90
2523;DHT22;1272;53.332;9.860;2023-02-03T11:16:03;8.50;74.40
2523;DHT22;1272;53.332;9.860;2023-02-03T11:18:54;8.50;76.80
2523;DHT22;1272;53.332;9.860;2023-02-03T11:21:21;8.60;13.20
2523;DHT22;1272;53.332;9.860;2023-02-03T11:27:09;8.70;91.30
2523;DHT22;1272;53.332;9.860;2023-02-03T11:29:44;8.60;99.90
2523;DHT22;1272;53.332;9.860;2023-02-03T11:32:34;8.60;72.80
2523;DHT22;1272;53.332;9.860;2023-02-03T11:35:16;8.60;99.90
2523;DHT22;1272;53.332;9.860;2023-02-03T11:37:45;8.70;99.90
2523;DHT22;1272;53.332;9.860;2023-02-03T11:40:31;8.70;99.90
2523;DHT22;1272;53.332;9.860;2023-02-03T11:43:15;8.70;99.90
2523;DHT22;1272;53.332;9.860;2023-02-03T11:45:44;8.60;99.90
2523;DHT22;1272;53.332;9.860;2023-02-03T11:51:17;8.70;99.90
2523;DHT22;1272;53.332;9.860;2023-02-03T12:00:02;8.70;99.90
2523;DHT22;1272;53.332;9.860;2023-02-03T12:08:14;8.70;90.80
2523;DHT22;1272;53.332;9.860;2023-02-03T12:21:59;8.70;1.00
2523;DHT22;1272;53.332;9.860;2023-02-03T12:27:29;8.60;1.00
2523;DHT22;1272;53.332;9.860;2023-02-03T12:30:13;8.70;1.00
2523;DHT22;1272;53.332;9.860;2023-02-03T12:32:44;8.70;1.00
2523;DHT22;1272;53.332;9.860;2023-02-03T12:35:35;8.80;99.90
2523;DHT22;1272;53.332;9.860;2023-02-03T12:41:16;8.70;99.90
2523;DHT22;1272;53.332;9.860;2023-02-03T12:43:45;8.70;99.90
2523;DHT22;1272;53.332;9.860;2023-02-03T12:46:37;8.60;99.90
2523;DHT22;1272;53.332;9.860;2023-02-03T12:52:07;8.60;99.90
2523;DHT22;1272;53.332;9.860;2023-02-03T12:57:43;8.50;1.00
2523;DHT22;1272;53.332;9.860;2023-02-03T13:06:05;8.50;1.00
2523;DHT22;1272;53.332;9.860;2023-02-03T13:14:19;8.40;1.00
2523;DHT22;1272;53.332;9.860;2023-02-03T13:20:11;8.40;1.00
2523;DHT22;1272;53.332;9.860;2023-02-03T13:22:38;8.40;99.90
2523;DHT22;1272;53.332;9.860;2023-02-03T13:25:21;8.40;1.00
2523;DHT22;1272;53.332;9.860;2023-02-03T13:44:04;8.30;1.00
2523;DHT22;1272;53.332;9.860;2023-02-03T13:46:34;8.20;1.00
2523;DHT22;1272;53.332;9.860;2023-02-03T13:49:02;8.20;1.00
2523;DHT22;1272;53.332;9.860;2023-02-03T13:51:32;8.20;1.00
2523;DHT22;1272;53.332;9.860;2023-02-03T13:54:12;8.10;1.00
2523;DHT22;1272;53.332;9.860;2023-02-03T13:56:38;8.10;1.00
2523;DHT22;1272;53.332;9.860;2023-02-03T13:59:26;8.10;1.00
2523;DHT22;1272;53.332;9.860;2023-02-03T14:04:53;8.10;1.00
2523;DHT22;1272;53.332;9.860;2023-02-03T14:07:36;8.00;1.00
2523;DHT22;1272;53.332;9.860;2023-02-03T14:12:57;8.00;1.00
2523;DHT22;1272;53.332;9.860;2023-02-03T14:15:28;7.90;1.00
2523;DHT22;1272;53.332;9.860;2023-02-03T14:23:12;7.90;1.00
2523;DHT22;1272;53.332;9.860;2023-02-03T14:25:45;7.90;1.00
2523;DHT22;1272;53.332;9.860;2023-02-03T14:28:17;7.80;1.00
2523;DHT22;1272;53.332;9.860;2023-02-03T14:38:51;7.70;54.50
2523;DHT22;1272;53.332;9.860;2023-02-03T14:41:43;7.70;6.40
2523;DHT22;1272;53.332;9.860;2023-02-03T14:49:57;7.70;70.00
2523;DHT22;1272;53.332;9.860;2023-02-03T14:58:03;7.70;91.10
2523;DHT22;1272;53.332;9.860;2023-02-03T15:00:33;7.60;37.20
2523;DHT22;1272;53.332;9.860;2023-02-03T15:07:57;7.70;19.90
2523;DHT22;1272;53.332;9.860;2023-02-03T15:10:41;7.70;61.80
2523;DHT22;1272;53.332;9.860;2023-02-03T15:13:26;7.60;96.30
2523;DHT22;1272;53.332;9.860;2023-02-03T15:16:13;7.60;90.00
2523;DHT22;1272;53.332;9.860;2023-02-03T15:18:40;7.60;99.90
2523;DHT22;1272;53.332;9.860;2023-02-03T15:21:17;7.60;99.90
2523;DHT22;1272;53.332;9.860;2023-02-03T15:23:45;7.60;99.50
2523;DHT22;1272;53.332;9.860;2023-02-03T15:26:25;7.60;93.00
2523;DHT22;1272;53.332;9.860;2023-02-03T15:28:58;7.50;99.90
2523;DHT22;1272;53.332;9.860;2023-02-03T15:34:01;7.50;99.90
2523;DHT22;1272;53.332;9.860;2023-02-03T15:36:44;7.50;99.90
2523;DHT22;1272;53.332;9.860;2023-02-03T15:41:45;7.50;99.90
2523;DHT22;1272;53.332;9.860;2023-02-03T15:44:22;7.50;99.90
2523;DHT22;1272;53.332;9.860;2023-02-03T15:46:54;7.50;99.90
2523;DHT22;1272;53.332;9.860;2023-02-03T15:49:40;7.40;99.90
2523;DHT22;1272;53.332;9.860;2023-02-03T15:52:10;7.50;99.90
2523;DHT22;1272;53.332;9.860;2023-02-03T15:54:47;7.40;99.90
2523;DHT22;1272;53.332;9.860;2023-02-03T15:57:19;7.40;94.60
2523;DHT22;1272;53.332;9.860;2023-02-03T16:02:21;7.40;86.60
2523;DHT22;1272;53.332;9.860;2023-02-03T16:04:52;7.40;99.90
2523;DHT22;1272;53.332;9.860;2023-02-03T16:07:24;7.40;99.90
2523;DHT22;1272;53.332;9.860;2023-02-03T16:09:57;7.40;99.90
2523;DHT22;1272;53.332;9.860;2023-02-03T16:12:28;7.40;99.90
2523;DHT22;1272;53.332;9.860;2023-02-03T16:14:55;7.40;99.90
2523;DHT22;1272;53.332;9.860;2023-02-03T16:17:33;7.50;99.90
2523;DHT22;1272;53.332;9.860;2023-02-03T16:22:39;7.40;99.90
2523;DHT22;1272;53.332;9.860;2023-02-03T16:25:24;7.40;99.90
2523;DHT22;1272;53.332;9.860;2023-02-03T16:33:36;7.30;99.90
2523;DHT22;1272;53.332;9.860;2023-02-03T16:36:20;7.20;99.90
2523;DHT22;1272;53.332;9.860;2023-02-03T16:39:09;7.30;99.90
2523;DHT22;1272;53.332;9.860;2023-02-03T16:41:56;7.30;99.90
2523;DHT22;1272;53.332;9.860;2023-02-03T16:44:41;7.30;99.90
2523;DHT22;1272;53.332;9.860;2023-02-03T16:47:27;7.30;99.90
2523;DHT22;1272;53.332;9.860;2023-02-03T16:50:23;7.30;99.90
2523;DHT22;1272;53.332;9.860;2023-02-03T16:53:19;7.30;99.90
2523;DHT22;1272;53.332;9.860;2023-02-03T16:55:46;7.30;99.90
2523;DHT22;1272;53.332;9.860;2023-02-03T16:58:12;7.30;99.90
2523;DHT22;1272;53.332;9.860;2023-02-03T17:00:39;7.40;99.90
2523;DHT22;1272;53.332;9.860;2023-02-03T17:03:10;7.40;99.90
2523;DHT22;1272;53.332;9.860;2023-02-03T17:05:37;7.30;99.90
2523;DHT22;1272;53.332;9.860;2023-02-03T17:08:06;7.30;99.90
2523;DHT22;1272;53.332;9.860;2023-02-03T17:10:39;7.30;99.90
2523;DHT22;1272;53.332;9.860;2023-02-03T17:13:06;7.30;99.90
2523;DHT22;1272;53.332;9.860;2023-02-03T17:15:33;7.40;99.90
2523;DHT22;1272;53.332;9.860;2023-02-03T17:17:59;7.30;99.90
2523;DHT22;1272;53.332;9.860;2023-02-03T17:20:25;7.40;99.90
2523;DHT22;1272;53.332;9.860;2023-02-03T17:22:51;7.40;99.90
2523;DHT22;1272;53.332;9.860;2023-02-03T17:25:19;7.30;99.90
2523;DHT22;1272;53.332;9.860;2023-02-03T17:27:45;7.30;99.90
2523;DHT22;1272;53.332;9.860;2023-02-03T17:30:12;7.30;99.90
2523;DHT22;1272;53.332;9.860;2023-02-03T17:32:38;7.30;99.90
2523;DHT22;1272;53.332;9.860;2023-02-03T17:35:04;7.20;99.90
2523;DHT22;1272;53.332;9.860;2023-02-03T17:37:33;7.30;99.90
2523;DHT22;1272;53.332;9.860;2023-02-03T17:39:59;7.20;99.90
2523;DHT22;1272;53.332;9.860;2023-02-03T17:42:25;7.20;99.90
2523;DHT22;1272;53.332;9.860;2023-02-03T17:44:50;7.20;99.90
2523;DHT22;1272;53.332;9.860;2023-02-03T17:47:16;7.20;99.90
2523;DHT22;1272;53.332;9.860;2023-02-03T17:49:42;7.20;99.90
2523;DHT22;1272;53.332;9.860;2023-02-03T17:52:09;7.20;99.90
2523;DHT22;1272;53.332;9.860;2023-02-03T17:54:35;7.20;99.90
2523;DHT22;1272;53.332;9.860;2023-02-03T17:57:01;7.20;99.90
2523;DHT22;1272;53.332;9.860;2023-02-03T17:59:26;7.20;99.90
2523;DHT22;1272;53.332;9.860;2023-02-03T18:01:52;7.20;99.90
2523;DHT22;1272;53.332;9.860;2023-02-03T18:04:18;7.20;99.90
2523;DHT22;1272;53.332;9.860;2023-02-03T18:06:43;7.20;99.90
2523;DHT22;1272;53.332;9.860;2023-02-03T18:09:12;7.20;99.90
2523;DHT22;1272;53.332;9.860;2023-02-03T18:11:41;7.20;99.90
2523;DHT22;1272;53.332;9.860;2023-02-03T18:14:08;7.20;99.90
2523;DHT22;1272;53.332;9.860;2023-02-03T18:16:35;7.20;99.90
2523;DHT22;1272;53.332;9.860;2023-02-03T18:19:03;7.20;99.90
2523;DHT22;1272;53.332;9.860;2023-02-03T18:21:29;7.10;99.90
2523;DHT22;1272;53.332;9.860;2023-02-03T18:23:57;7.10;99.90
2523;DHT22;1272;53.332;9.860;2023-02-03T18:26:30;7.20;99.90
2523;DHT22;1272;53.332;9.860;2023-02-03T18:29:02;7.10;99.90
2523;DHT22;1272;53.332;9.860;2023-02-03T18:31:28;7.10;99.90
2523;DHT22;1272;53.332;9.860;2023-02-03T18:33:54;7.00;99.90
2523;DHT22;1272;53.332;9.860;2023-02-03T18:36:20;7.00;99.90
2523;DHT22;1272;53.332;9.860;2023-02-03T18:38:47;6.90;99.90
2523;DHT22;1272;53.332;9.860;2023-02-03T18:41:17;6.80;99.90
2523;DHT22;1272;53.332;9.860;2023-02-03T18:43:44;6.70;99.90
2523;DHT22;1272;53.332;9.860;2023-02-03T18:46:12;6.70;99.90
2523;DHT22;1272;53.332;9.860;2023-02-03T18:48:38;6.70;99.90
2523;DHT22;1272;53.332;9.860;2023-02-03T18:51:08;6.70;99.90
2523;DHT22;1272;53.332;9.860;2023-02-03T18:53:35;6.60;99.90
2523;DHT22;1272;53.332;9.860;2023-02-03T18:56:00;6.60;99.90
2523;DHT22;1272;53.332;9.860;2023-02-03T18:58:32;6.60;99.90
2523;DHT22;1272;53.332;9.860;2023-02-03T19:00:58;6.70;99.90
2523;DHT22;1272;53.332;9.860;2023-02-03T19:03:24;6.60;99.90
2523;DHT22;1272;53.332;9.860;2023-02-03T19:05:51;6.70;99.90
2523;DHT22;1272;53.332;9.860;2023-02-03T19:08:17;6.70;99.90
2523;DHT22;1272;53.332;9.860;2023-02-03T19:10:43;6.70;99.90
2523;DHT22;1272;53.332;9.860;2023-02-03T19:13:10;6.60;99.90
2523;DHT22;1272;53.332;9.860;2023-02-03T19:15:35;6.60;99.90
2523;DHT22;1272;53.332;9.860;2023-02-03T19:18:01;6.60;99.90
2523;DHT22;1272;53.332;9.860;2023-02-03T19:20:27;6.60;99.90